Time;durP1;ratioP1;P1;durP2;ratioP2;P2;SDS_P1;SDS_P2;PMS_P1;PMS_P2;Temp;Humidity;BMP_temperature;BMP_pressure;BME280_temperature;BME280_humidity;BME280_pressure;Samples;Min_cycle;Max_cycle;Signal;HPM_P1;HPM_P2
2022/03/17 00:02:08;;;;;;;14.47;11.13;;;11.60;1.00;;;;;;4975143;28;20233;-57
2022/03/17 00:04:35;;;;;;;13.60;10.27;;;11.60;1.00;;;;;;4976265;28;20225;-56
2022/03/17 00:07:02;;;;;;;13.63;10.37;;;11.60;1.00;;;;;;4974143;28;20328;-56
2022/03/17 00:09:29;;;;;;;14.50;11.13;;;11.60;1.00;;;;;;4975939;28;20209;-55
2022/03/17 00:11:56;;;;;;;13.17;10.53;;;11.60;1.00;;;;;;4976716;28;20323;-55
2022/03/17 00:14:23;;;;;;;17.13;11.23;;;11.60;1.00;;;;;;4977937;28;20288;-55
2022/03/17 00:16:50;;;;;;;16.73;11.30;;;11.50;1.00;;;;;;4976383;28;20637;-55
2022/03/17 00:19:17;;;;;;;15.93;11.13;;;11.60;1.00;;;;;;4976723;28;20214;-55
2022/03/17 00:21:44;;;;;;;14.17;10.60;;;11.60;1.00;;;;;;4974291;28;20614;-54
2022/03/17 00:24:11;;;;;;;14.33;11.40;;;11.60;1.00;;;;;;4976961;28;20257;-56
2022/03/17 00:26:38;;;;;;;14.80;11.10;;;11.60;1.00;;;;;;4975181;28;20301;-56
2022/03/17 00:29:08;;;;;;;18.23;12.03;;;11.50;1.00;;;;;;4976285;28;21836;-55
2022/03/17 00:31:37;;;;;;;14.83;11.43;;;11.60;1.00;;;;;;4973545;28;20206;-55
2022/03/17 00:34:06;;;;;;;15.13;11.20;;;11.50;1.00;;;;;;4975384;28;20216;-55
2022/03/17 00:36:34;;;;;;;15.80;11.20;;;11.50;1.00;;;;;;4974419;28;20209;-55
2022/03/17 00:39:04;;;;;;;17.73;11.20;;;11.60;1.00;;;;;;4977217;28;20661;-55
2022/03/17 00:41:31;;;;;;;15.03;11.30;;;11.60;1.00;;;;;;4974531;28;20217;-57
2022/03/17 00:43:58;;;;;;;15.53;11.43;;;11.50;1.00;;;;;;4974393;28;20248;-55
2022/03/17 00:46:25;;;;;;;14.67;11.17;;;11.50;1.00;;;;;;4975609;28;20283;-55
2022/03/17 00:48:51;;;;;;;21.93;12.40;;;11.50;1.00;;;;;;4973272;28;20204;-55
2022/03/17 00:51:18;;;;;;;13.97;11.07;;;11.50;1.00;;;;;;4977630;28;20325;-55
2022/03/17 00:53:46;;;;;;;14.60;11.37;;;11.50;1.00;;;;;;4976386;28;20271;-55
2022/03/17 00:56:13;;;;;;;15.53;11.10;;;11.50;1.00;;;;;;4977609;28;20781;-57
2022/03/17 00:58:40;;;;;;;14.13;11.10;;;11.40;1.00;;;;;;4974260;28;20710;-56
2022/03/17 01:01:08;;;;;;;16.23;11.93;;;11.50;1.00;;;;;;4971318;28;20764;-55
2022/03/17 01:03:35;;;;;;;17.47;12.03;;;11.50;1.00;;;;;;4976124;28;20288;-55
2022/03/17 01:06:02;;;;;;;16.37;11.37;;;11.50;1.00;;;;;;4978502;28;20286;-55
2022/03/17 01:08:35;;;;;;;15.27;11.47;;;11.50;1.00;;;;;;4975054;28;20296;-56
2022/03/17 01:11:02;;;;;;;18.30;11.63;;;11.50;1.00;;;;;;4974580;28;20245;-56
2022/03/17 01:13:29;;;;;;;16.50;11.87;;;11.50;1.00;;;;;;4973131;28;20232;-56
2022/03/17 01:15:56;;;;;;;20.50;12.10;;;11.50;1.00;;;;;;4976151;28;20739;-56
2022/03/17 01:18:23;;;;;;;15.77;11.13;;;11.50;1.00;;;;;;4974474;28;20212;-55
2022/03/17 01:20:53;;;;;;;18.13;11.87;;;11.50;1.00;;;;;;4974069;28;20205;-56
2022/03/17 01:23:20;;;;;;;16.13;11.83;;;11.50;1.00;;;;;;4975648;28;20797;-55
2022/03/17 01:25:46;;;;;;;26.10;13.27;;;11.50;1.00;;;;;;4976302;28;20302;-55
2022/03/17 01:28:13;;;;;;;17.47;11.13;;;11.60;1.00;;;;;;4976956;28;20235;-55
2022/03/17 01:30:40;;;;;;;17.20;12.30;;;11.50;1.00;;;;;;4974981;28;20201;-55
2022/03/17 01:33:07;;;;;;;14.47;11.07;;;11.50;1.00;;;;;;4973058;28;20208;-56
2022/03/17 01:35:34;;;;;;;16.80;11.47;;;11.50;1.00;;;;;;4975023;28;20291;-55
2022/03/17 01:38:01;;;;;;;17.80;11.77;;;11.40;26.10;;;;;;4976944;28;20208;-55
2022/03/17 01:40:27;;;;;;;15.97;11.80;;;11.50;34.10;;;;;;4975159;28;20282;-54
2022/03/17 01:42:54;;;;;;;19.33;11.57;;;11.50;27.40;;;;;;4976556;28;20313;-57
2022/03/17 01:45:21;;;;;;;17.77;11.83;;;11.60;26.10;;;;;;4978337;28;20220;-57
2022/03/17 01:47:48;;;;;;;16.40;11.57;;;11.40;76.80;;;;;;4975243;28;20810;-56
2022/03/17 01:50:16;;;;;;;21.43;11.93;;;11.40;99.90;;;;;;4974881;28;20228;-56
2022/03/17 01:52:44;;;;;;;19.53;12.77;;;11.40;99.90;;;;;;4974335;28;20303;-55
2022/03/17 01:55:13;;;;;;;16.70;12.23;;;11.40;99.90;;;;;;4972959;28;20613;-55
2022/03/17 01:57:40;;;;;;;17.87;12.40;;;11.30;99.90;;;;;;4974448;28;20209;-54
2022/03/17 02:00:13;;;;;;;18.43;12.20;;;11.40;99.90;;;;;;4972472;28;20666;-55
2022/03/17 02:02:41;;;;;;;18.57;12.27;;;11.30;99.90;;;;;;4971249;28;20256;-56
2022/03/17 02:05:09;;;;;;;16.47;11.47;;;11.30;99.90;;;;;;4969058;28;20253;-56
2022/03/17 02:07:35;;;;;;;15.43;12.13;;;11.20;99.90;;;;;;4974285;28;20810;-55
2022/03/17 02:10:04;;;;;;;20.77;13.00;;;11.30;99.90;;;;;;4973835;28;20215;-54
2022/03/17 02:15:17;;;;;;;17.63;11.97;;;11.20;99.90;;;;;;4974800;28;20304;-54
2022/03/17 02:17:44;;;;;;;18.70;13.07;;;11.20;99.90;;;;;;4973582;28;20905;-55
2022/03/17 02:20:13;;;;;;;20.77;11.97;;;11.20;99.90;;;;;;4971083;28;20308;-55
2022/03/17 02:22:46;;;;;;;18.60;12.67;;;11.20;99.90;;;;;;4979694;28;22150;-56
2022/03/17 02:25:33;;;;;;;19.40;12.60;;;11.20;99.90;;;;;;4977306;28;20717;-57
2022/03/17 02:28:05;;;;;;;20.10;13.30;;;11.20;99.90;;;;;;4977031;28;20641;-56
2022/03/17 02:30:35;;;;;;;21.23;13.73;;;11.20;99.90;;;;;;4976904;28;20709;-55
2022/03/17 02:33:06;;;;;;;22.83;13.47;;;11.20;99.90;;;;;;4980550;28;20572;-56
2022/03/17 02:35:37;;;;;;;16.37;11.77;;;11.20;99.90;;;;;;4976463;28;20241;-57
2022/03/17 02:38:06;;;;;;;18.00;12.40;;;11.20;99.90;;;;;;4977388;28;20225;-56
2022/03/17 02:40:34;;;;;;;26.37;13.60;;;11.20;99.90;;;;;;4975606;28;20361;-57
2022/03/17 02:43:04;;;;;;;22.50;14.60;;;11.20;99.90;;;;;;4976162;28;20209;-56
2022/03/17 02:45:32;;;;;;;23.83;14.97;;;11.20;99.90;;;;;;4978031;28;20203;-56
2022/03/17 02:47:59;;;;;;;20.57;14.20;;;11.20;99.90;;;;;;4977994;28;20209;-56
2022/03/17 02:50:26;;;;;;;24.63;14.93;;;11.20;99.90;;;;;;4974263;28;20205;-55
2022/03/17 02:52:53;;;;;;;22.27;15.90;;;11.20;99.90;;;;;;4979024;28;20304;-56
2022/03/17 02:55:20;;;;;;;22.13;14.40;;;11.30;99.90;;;;;;4978833;28;20236;-55
2022/03/17 02:57:47;;;;;;;17.43;12.83;;;11.30;99.90;;;;;;4978344;28;20263;-57
2022/03/17 03:00:15;;;;;;;15.63;10.83;;;11.30;99.90;;;;;;4980584;28;20650;-56
2022/03/17 03:02:43;;;;;;;12.33;8.43;;;11.20;99.90;;;;;;4978321;28;20242;-55
2022/03/17 03:05:10;;;;;;;9.40;7.90;;;11.10;99.90;;;;;;4975482;28;20255;-54
2022/03/17 03:07:37;;;;;;;9.93;7.80;;;11.00;99.90;;;;;;4978756;28;20568;-56
2022/03/17 03:10:05;;;;;;;10.87;8.03;;;10.70;99.90;;;;;;4977244;28;20229;-55
2022/03/17 03:12:32;;;;;;;11.80;9.23;;;10.50;99.90;;;;;;4974280;28;20317;-54
2022/03/17 03:14:59;;;;;;;12.27;9.30;;;10.50;99.90;;;;;;4974578;28;20291;-55
2022/03/17 03:17:27;;;;;;;14.03;10.03;;;10.40;99.90;;;;;;4975386;28;20244;-55
2022/03/17 03:19:54;;;;;;;12.70;9.87;;;10.40;99.90;;;;;;4975054;28;20658;-55
2022/03/17 03:22:21;;;;;;;13.10;10.27;;;10.50;99.90;;;;;;4978088;28;20943;-55
2022/03/17 03:24:48;;;;;;;13.87;11.03;;;10.50;99.90;;;;;;4975814;28;20626;-57
2022/03/17 03:27:15;;;;;;;14.67;11.73;;;10.40;99.90;;;;;;4977412;28;20239;-56
2022/03/17 03:29:42;;;;;;;16.23;12.70;;;10.50;99.90;;;;;;4976824;28;20633;-56
2022/03/17 03:32:09;;;;;;;16.87;12.40;;;10.50;99.90;;;;;;4977250;28;21360;-56
2022/03/17 03:34:36;;;;;;;16.00;12.90;;;10.50;99.90;;;;;;4975176;28;20215;-56
2022/03/17 03:39:57;;;;;;;18.20;14.50;;;10.40;99.90;;;;;;4975708;28;20601;-55
2022/03/17 03:42:27;;;;;;;19.17;14.30;;;10.40;99.90;;;;;;4972645;28;20278;-55
2022/03/17 03:44:54;;;;;;;14.90;11.57;;;10.30;99.90;;;;;;4973250;28;20277;-54
2022/03/17 03:47:21;;;;;;;12.77;8.90;;;10.20;99.90;;;;;;4972719;28;20257;-55
2022/03/17 03:49:48;;;;;;;13.03;8.50;;;10.00;99.90;;;;;;4973625;28;20233;-55
2022/03/17 03:52:15;;;;;;;10.97;7.50;;;10.00;99.90;;;;;;4973485;28;20269;-55
2022/03/17 03:54:42;;;;;;;9.80;6.37;;;9.90;99.90;;;;;;4971728;28;21075;-55
2022/03/17 03:57:09;;;;;;;8.30;6.60;;;9.80;99.90;;;;;;4972844;28;20602;-55
2022/03/17 03:59:36;;;;;;;10.63;7.03;;;9.80;99.90;;;;;;4970913;28;20238;-57
2022/03/17 04:02:06;;;;;;;10.60;7.37;;;9.90;99.90;;;;;;4973794;28;20302;-56
2022/03/17 04:04:38;;;;;;;11.47;7.93;;;9.80;99.90;;;;;;4972487;28;20273;-55
2022/03/17 04:07:08;;;;;;;14.17;8.57;;;9.70;99.90;;;;;;4970586;28;20229;-55
2022/03/17 04:09:40;;;;;;;12.30;9.30;;;9.70;99.90;;;;;;4973688;28;20737;-55
2022/03/17 04:12:08;;;;;;;14.03;9.37;;;9.60;99.90;;;;;;4973386;28;20234;-55
2022/03/17 04:14:36;;;;;;;14.53;8.80;;;9.70;99.90;;;;;;4975345;28;20685;-54
2022/03/17 04:17:04;;;;;;;18.00;9.80;;;9.60;99.90;;;;;;4973149;28;20209;-56
2022/03/17 04:19:31;;;;;;;16.87;11.07;;;9.50;99.90;;;;;;4970890;28;20734;-55
2022/03/17 04:21:58;;;;;;;17.03;9.73;;;9.50;99.90;;;;;;4971740;28;20819;-56
2022/03/17 04:24:25;;;;;;;15.53;11.27;;;9.60;99.90;;;;;;4974988;28;20709;-55
2022/03/17 04:26:52;;;;;;;14.87;10.70;;;9.50;99.90;;;;;;4974229;28;20725;-55
2022/03/17 04:29:19;;;;;;;19.40;10.90;;;9.50;99.90;;;;;;4973111;28;20297;-55
2022/03/17 04:31:46;;;;;;;16.33;11.20;;;9.60;99.90;;;;;;4976435;28;20226;-56
2022/03/17 04:34:13;;;;;;;15.53;10.80;;;9.50;99.90;;;;;;4972720;28;20574;-55
2022/03/17 04:36:40;;;;;;;19.60;11.47;;;9.40;99.90;;;;;;4971517;28;20233;-54
2022/03/17 04:39:11;;;;;;;14.03;9.50;;;9.30;99.90;;;;;;4971585;28;20214;-63
2022/03/17 04:41:39;;;;;;;17.00;9.73;;;9.30;99.90;;;;;;4971648;28;20303;-56
2022/03/17 04:44:08;;;;;;;15.27;8.40;;;9.30;99.90;;;;;;4971932;28;20269;-55
2022/03/17 04:46:35;;;;;;;11.63;6.90;;;9.30;99.90;;;;;;4972222;28;20331;-55
2022/03/17 04:49:03;;;;;;;13.23;6.13;;;9.30;99.90;;;;;;4974625;28;21029;-57
2022/03/17 04:51:31;;;;;;;13.90;6.10;;;9.20;99.90;;;;;;4971551;28;20329;-61
2022/03/17 04:53:58;;;;;;;14.07;4.80;;;9.10;99.90;;;;;;4974426;28;20229;-56
2022/03/17 04:56:24;;;;;;;11.30;5.03;;;9.00;99.90;;;;;;4976874;28;20290;-55
2022/03/17 04:58:51;;;;;;;9.50;4.23;;;9.10;99.90;;;;;;4974755;28;20920;-55
2022/03/17 05:01:18;;;;;;;7.93;3.87;;;9.00;99.90;;;;;;4973055;28;20219;-55
2022/03/17 05:03:45;;;;;;;9.83;4.03;;;9.00;99.90;;;;;;4975504;28;20690;-57
2022/03/17 05:06:14;;;;;;;8.77;3.70;;;9.00;99.90;;;;;;4976241;28;20320;-56
2022/03/17 05:08:41;;;;;;;7.17;2.80;;;8.90;99.90;;;;;;4973717;28;20591;-55
2022/03/17 05:11:09;;;;;;;11.90;3.63;;;8.90;99.90;;;;;;4975706;28;20300;-55
2022/03/17 05:13:37;;;;;;;8.97;3.10;;;8.90;99.90;;;;;;4975370;28;20304;-56
2022/03/17 05:16:05;;;;;;;6.17;2.70;;;8.90;99.90;;;;;;5004531;28;20300;-57
2022/03/17 05:18:33;;;;;;;8.30;2.20;;;8.90;99.90;;;;;;4974932;28;20216;-55
2022/03/17 05:21:00;;;;;;;7.70;2.30;;;8.70;99.90;;;;;;4976768;28;20295;-55
2022/03/17 05:23:27;;;;;;;6.17;2.20;;;8.80;99.90;;;;;;4975937;28;20218;-55
2022/03/17 05:25:54;;;;;;;4.07;2.20;;;8.80;99.90;;;;;;4976031;28;20263;-54
2022/03/17 05:28:21;;;;;;;8.57;2.13;;;8.80;99.90;;;;;;4977109;28;20271;-55
2022/03/17 05:30:47;;;;;;;7.40;2.50;;;8.90;99.90;;;;;;4974818;28;20338;-55
2022/03/17 05:33:15;;;;;;;5.93;2.10;;;8.80;99.90;;;;;;4974597;28;20200;-55
2022/03/17 05:35:43;;;;;;;11.57;2.03;;;8.80;99.90;;;;;;4974307;28;20558;-57
2022/03/17 05:38:10;;;;;;;4.93;1.93;;;8.90;99.90;;;;;;4974123;28;20699;-56
2022/03/17 05:40:37;;;;;;;9.53;2.37;;;8.90;99.90;;;;;;4973019;28;20437;-56
2022/03/17 05:43:07;;;;;;;9.50;2.10;;;8.90;99.90;;;;;;4991184;28;20274;-56
2022/03/17 05:45:34;;;;;;;8.07;2.23;;;8.90;99.90;;;;;;4974695;28;20322;-55
2022/03/17 05:48:04;;;;;;;8.27;2.50;;;8.90;91.50;;;;;;4974095;28;20215;-57
2022/03/17 05:50:34;;;;;;;8.57;1.70;;;8.80;99.90;;;;;;4974152;28;20466;-56
2022/03/17 05:53:01;;;;;;;4.50;1.60;;;8.80;99.90;;;;;;4974950;28;20252;-55
2022/03/17 05:55:28;;;;;;;6.90;2.20;;;8.80;99.90;;;;;;4974139;28;20274;-55
2022/03/17 05:57:57;;;;;;;7.37;1.90;;;8.80;99.90;;;;;;4974876;28;20300;-55
2022/03/17 06:00:26;;;;;;;10.23;1.80;;;8.70;99.90;;;;;;4981215;28;20292;-57
2022/03/17 06:02:53;;;;;;;2.00;1.20;;;8.70;99.90;;;;;;4978007;28;20841;-56
2022/03/17 06:05:20;;;;;;;6.27;1.87;;;8.60;98.20;;;;;;4978573;28;20669;-55
2022/03/17 06:07:50;;;;;;;4.27;1.60;;;8.60;66.70;;;;;;4979706;28;20227;-55
2022/03/17 06:10:24;;;;;;;3.00;1.53;;;8.60;87.80;;;;;;4976880;28;20314;-55
2022/03/17 06:12:52;;;;;;;4.80;1.73;;;8.60;35.70;;;;;;4977494;28;20542;-55
2022/03/17 06:15:24;;;;;;;5.13;2.70;;;8.60;89.70;;;;;;4980117;28;20289;-56
2022/03/17 06:17:57;;;;;;;6.80;1.60;;;8.60;99.90;;;;;;4977813;28;20296;-55
2022/03/17 06:20:26;;;;;;;8.07;1.73;;;8.50;99.90;;;;;;4978405;28;20300;-55
2022/03/17 06:22:58;;;;;;;7.03;1.90;;;8.60;99.90;;;;;;4981132;28;20843;-57
2022/03/17 06:25:27;;;;;;;4.37;1.70;;;8.70;99.90;;;;;;4979201;28;20674;-56
2022/03/17 06:27:54;;;;;;;4.43;1.83;;;8.60;99.90;;;;;;4975594;28;20236;-55
2022/03/17 06:30:24;;;;;;;5.00;1.47;;;8.60;99.90;;;;;;4979382;28;20677;-55
2022/03/17 06:32:51;;;;;;;7.07;1.60;;;8.50;99.90;;;;;;4975757;28;20214;-55
2022/03/17 06:35:21;;;;;;;6.53;1.83;;;8.50;99.90;;;;;;4977321;28;20212;-55
2022/03/17 06:37:55;;;;;;;6.43;1.60;;;8.60;99.90;;;;;;4977254;28;20237;-55
2022/03/17 06:40:23;;;;;;;5.50;1.33;;;8.50;99.90;;;;;;4978078;28;20289;-57
2022/03/17 06:42:51;;;;;;;7.07;1.73;;;8.50;99.90;;;;;;4979842;28;20594;-56
2022/03/17 06:45:18;;;;;;;3.73;2.00;;;8.50;99.90;;;;;;4978962;28;20316;-55
2022/03/17 06:47:45;;;;;;;8.83;1.60;;;8.50;98.20;;;;;;4981269;28;20224;-54
2022/03/17 06:50:14;;;;;;;5.40;1.50;;;8.50;99.90;;;;;;4976409;28;20276;-55
2022/03/17 06:52:41;;;;;;;7.00;1.53;;;8.50;26.10;;;;;;4974076;28;20261;-57
2022/03/17 06:55:09;;;;;;;8.43;1.73;;;8.60;70.10;;;;;;4976886;28;21069;-56
2022/03/17 06:57:36;;;;;;;4.83;1.30;;;8.50;1.00;;;;;;4976432;28;20302;-57
2022/03/17 07:00:06;;;;;;;8.53;1.50;;;8.70;1.00;;;;;;4973055;28;20981;-56
2022/03/17 07:02:33;;;;;;;6.97;1.20;;;8.60;1.00;;;;;;4975416;28;20212;-55
2022/03/17 07:05:00;;;;;;;7.37;1.30;;;8.60;1.00;;;;;;4972813;28;20678;-55
2022/03/17 07:07:27;;;;;;;3.00;1.00;;;8.60;1.00;;;;;;4974126;28;20359;-55
2022/03/17 07:09:54;;;;;;;5.87;1.23;;;8.70;1.00;;;;;;4971162;28;20296;-55
2022/03/17 07:12:21;;;;;;;5.17;1.43;;;8.70;6.90;;;;;;4973420;28;20581;-55
2022/03/17 07:14:48;;;;;;;6.90;1.53;;;8.70;46.30;;;;;;4975844;28;21166;-55
2022/03/17 07:17:22;;;;;;;7.53;2.33;;;8.70;99.90;;;;;;4974542;28;20299;-59
2022/03/17 07:19:58;;;;;;;8.43;1.80;;;8.60;99.90;;;;;;4970768;28;20205;-55
2022/03/17 07:22:27;;;;;;;6.97;1.67;;;8.80;99.90;;;;;;4970612;28;20217;-55
2022/03/17 07:24:54;;;;;;;8.87;1.93;;;8.80;99.90;;;;;;4970587;28;20555;-56
2022/03/17 07:27:21;;;;;;;6.37;1.87;;;8.80;99.90;;;;;;4972213;28;20266;-56
2022/03/17 07:29:49;;;;;;;9.50;1.70;;;8.80;99.90;;;;;;4951011;28;20216;-55
2022/03/17 07:32:16;;;;;;;7.93;1.87;;;8.80;77.90;;;;;;4978163;28;20752;-57
2022/03/17 07:34:42;;;;;;;4.73;1.43;;;8.70;91.90;;;;;;4975331;28;20694;-57
2022/03/17 07:37:09;;;;;;;6.17;1.70;;;8.80;90.30;;;;;;4979091;28;20221;-56
2022/03/17 07:39:36;;;;;;;6.10;1.70;;;8.80;20.10;;;;;;4977485;28;20293;-55
2022/03/17 07:42:06;;;;;;;11.90;1.80;;;8.70;1.00;;;;;;4976645;28;22113;-55
2022/03/17 07:44:35;;;;;;;10.67;1.77;;;8.80;1.00;;;;;;4974709;28;20885;-57
2022/03/17 07:47:02;;;;;;;10.13;1.57;;;8.80;1.00;;;;;;4979816;28;20242;-56
2022/03/17 07:49:29;;;;;;;5.03;1.30;;;8.80;1.00;;;;;;4973247;28;20203;-55
2022/03/17 07:51:56;;;;;;;6.47;2.07;;;8.70;1.00;;;;;;4976874;28;20255;-55
2022/03/17 07:54:23;;;;;;;10.70;1.60;;;8.70;1.00;;;;;;4976832;28;20852;-56
2022/03/17 07:56:50;;;;;;;7.00;1.30;;;8.60;1.00;;;;;;4976196;28;20662;-55
2022/03/17 07:59:18;;;;;;;8.10;1.40;;;8.60;1.00;;;;;;4976838;28;20687;-55
2022/03/17 08:01:45;;;;;;;11.00;2.00;;;8.50;1.00;;;;;;4978969;28;20284;-57
2022/03/17 08:04:12;;;;;;;6.03;1.20;;;8.60;1.00;;;;;;4979405;28;20217;-56
2022/03/17 08:06:39;;;;;;;6.43;1.50;;;8.70;1.00;;;;;;4979435;28;20268;-56
2022/03/17 08:09:06;;;;;;;7.47;1.13;;;8.80;9.80;;;;;;4976514;28;20208;-55
2022/03/17 08:11:33;;;;;;;7.77;1.70;;;8.80;99.90;;;;;;4978452;28;20310;-55
2022/03/17 08:13:59;;;;;;;9.83;2.00;;;8.80;1.00;;;;;;4978271;28;20290;-57
2022/03/17 08:16:26;;;;;;;5.57;1.50;;;9.00;7.30;;;;;;4974874;28;20239;-56
2022/03/17 08:18:53;;;;;;;8.43;2.03;;;9.00;1.00;;;;;;4970122;28;20870;-55
2022/03/17 08:21:20;;;;;;;8.33;1.47;;;9.10;46.20;;;;;;4959252;28;20207;-55
2022/03/17 08:23:47;;;;;;;6.30;1.23;;;9.00;1.00;;;;;;4976239;28;20302;-55
2022/03/17 08:26:14;;;;;;;5.23;2.33;;;9.10;99.90;;;;;;4977778;28;20774;-56
2022/03/17 08:28:41;;;;;;;8.93;1.40;;;9.10;99.90;;;;;;4973211;28;20739;-55
2022/03/17 08:31:08;;;;;;;6.97;1.73;;;9.00;1.00;;;;;;4977803;28;20557;-55
2022/03/17 08:33:35;;;;;;;4.03;1.17;;;9.00;1.00;;;;;;4978157;28;20210;-55
2022/03/17 08:36:05;;;;;;;10.50;1.33;;;9.10;99.90;;;;;;4978312;28;20230;-55
2022/03/17 08:38:33;;;;;;;3.87;0.80;;;9.10;99.90;;;;;;4974433;28;20654;-55
2022/03/17 08:40:59;;;;;;;9.47;1.30;;;9.00;1.00;;;;;;4972525;28;20237;-55
2022/03/17 08:43:26;;;;;;;9.17;1.40;;;9.10;1.00;;;;;;4972069;28;20558;-56
2022/03/17 08:51:27;;;;;;;6.87;1.13;;;9.20;1.00;;;;;;4970912;28;20262;-57
2022/03/17 08:53:56;;;;;;;5.90;1.33;;;9.20;1.00;;;;;;4968959;28;20655;-56
2022/03/17 08:56:23;;;;;;;6.07;1.67;;;9.10;1.00;;;;;;4976251;28;20206;-55
2022/03/17 08:58:50;;;;;;;4.40;1.53;;;9.30;1.00;;;;;;4972775;28;20243;-56
2022/03/17 09:01:17;;;;;;;30.50;3.13;;;9.40;1.00;;;;;;4971269;28;20688;-55
2022/03/17 09:03:44;;;;;;;8.77;1.80;;;9.40;99.90;;;;;;4972235;28;20313;-55
2022/03/17 09:06:12;;;;;;;14.80;1.43;;;9.40;1.00;;;;;;4970644;28;20229;-57
2022/03/17 09:08:42;;;;;;;17.37;2.20;;;9.30;1.00;;;;;;4974482;28;20205;-55
2022/03/17 09:11:12;;;;;;;3.60;1.20;;;9.40;1.00;;;;;;4970242;28;20213;-55
2022/03/17 09:13:39;;;;;;;5.13;1.10;;;9.50;1.00;;;;;;4962982;28;20203;-55
2022/03/17 09:16:06;;;;;;;6.50;1.87;;;9.50;1.00;;;;;;4974898;28;20612;-55
2022/03/17 09:18:34;;;;;;;4.60;1.00;;;9.60;1.00;;;;;;4973611;28;20668;-56
2022/03/17 09:21:01;;;;;;;3.63;1.00;;;9.60;1.00;;;;;;4969652;28;20312;-56
2022/03/17 09:23:32;;;;;;;4.80;1.17;;;9.70;1.00;;;;;;4972487;28;20236;-56
2022/03/17 09:25:59;;;;;;;6.60;1.70;;;9.60;99.90;;;;;;4970215;28;20347;-55
2022/03/17 09:28:28;;;;;;;5.87;1.30;;;9.60;1.00;;;;;;4969902;28;21022;-55
2022/03/17 09:30:56;;;;;;;4.73;1.23;;;9.60;99.90;;;;;;4969047;28;20336;-55
2022/03/17 09:33:25;;;;;;;6.07;1.30;;;9.60;1.00;;;;;;4973548;28;20779;-54
2022/03/17 09:35:56;;;;;;;4.50;1.07;;;9.60;99.90;;;;;;4976721;28;20202;-57
2022/03/17 09:38:24;;;;;;;6.37;1.27;;;9.40;99.90;;;;;;4976094;28;20300;-55
2022/03/17 09:40:51;;;;;;;2.60;0.73;;;9.30;99.90;;;;;;4979028;28;20231;-57
2022/03/17 09:43:28;;;;;;;6.40;0.93;;;9.40;1.00;;;;;;4978343;28;20366;-55
2022/03/17 09:45:57;;;;;;;4.13;0.80;;;9.50;1.00;;;;;;4977087;28;20349;-56
2022/03/17 09:48:25;;;;;;;7.00;1.13;;;9.50;1.00;;;;;;4978208;28;20348;-57
2022/03/17 09:50:56;;;;;;;2.37;0.77;;;9.40;1.00;;;;;;4974926;28;20393;-55
2022/03/17 09:53:28;;;;;;;4.33;0.90;;;9.40;1.00;;;;;;4979400;28;20579;-56
2022/03/17 09:55:55;;;;;;;6.57;1.10;;;9.40;1.00;;;;;;4992677;28;20677;-55
2022/03/17 09:58:22;;;;;;;4.90;2.47;;;9.40;99.90;;;;;;4978590;28;20246;-55
2022/03/17 10:00:49;;;;;;;3.93;1.07;;;9.50;99.90;;;;;;4975082;28;20252;-56
2022/03/17 10:03:18;;;;;;;7.57;1.63;;;9.50;99.90;;;;;;4976148;28;20211;-57
2022/03/17 10:05:46;;;;;;;5.40;1.10;;;9.50;1.00;;;;;;4973663;28;20560;-63
2022/03/17 10:08:20;;;;;;;4.23;0.90;;;9.70;1.00;;;;;;4976430;28;20373;-64
2022/03/17 10:10:49;;;;;;;8.07;1.40;;;9.70;1.00;;;;;;4977304;28;20285;-62
2022/03/17 10:13:19;;;;;;;4.53;1.27;;;9.70;1.00;;;;;;4976986;28;20350;-63
2022/03/17 10:15:47;;;;;;;5.20;1.50;;;9.80;1.00;;;;;;4974965;28;20297;-62
2022/03/17 10:18:19;;;;;;;4.60;1.73;;;9.80;1.00;;;;;;4975823;28;20293;-61
2022/03/17 10:20:46;;;;;;;7.47;1.17;;;9.70;99.90;;;;;;4973793;28;20217;-61
2022/03/17 10:23:23;;;;;;;7.07;1.37;;;9.70;99.90;;;;;;4976988;28;20213;-61
2022/03/17 10:25:55;;;;;;;4.37;1.40;;;9.90;99.90;;;;;;4973727;28;20752;-63
2022/03/17 10:28:26;;;;;;;5.13;1.10;;;9.90;11.30;;;;;;4976046;28;20248;-62
2022/03/17 10:31:11;;;;;;;6.27;1.20;;;9.90;35.30;;;;;;4978662;28;20316;-61
2022/03/17 10:33:38;;;;;;;3.93;1.23;;;9.80;1.00;;;;;;4977596;28;20298;-62
2022/03/17 10:36:19;;;;;;;5.20;1.00;;;9.80;99.90;;;;;;4976478;28;20212;-61
2022/03/17 10:38:46;;;;;;;3.70;1.50;;;9.80;1.00;;;;;;4976582;28;20473;-61
2022/03/17 10:41:13;;;;;;;4.67;1.50;;;9.80;93.90;;;;;;4975802;28;20208;-61
2022/03/17 10:43:43;;;;;;;7.03;1.63;;;9.90;1.00;;;;;;4976363;28;20543;-61
2022/03/17 10:46:21;;;;;;;6.57;2.23;;;10.10;1.00;;;;;;4974686;28;20747;-61
2022/03/17 10:48:59;;;;;;;6.60;2.17;;;10.20;1.00;;;;;;4982035;28;20216;-54
2022/03/17 10:51:43;;;;;;;4.67;1.63;;;10.30;1.00;;;;;;4971765;28;20376;-55
2022/03/17 10:54:11;;;;;;;5.57;1.73;;;10.40;1.00;;;;;;4975676;28;20288;-54
2022/03/17 10:56:39;;;;;;;7.30;1.53;;;10.30;1.00;;;;;;4976646;28;20309;-58
2022/03/17 10:59:07;;;;;;;5.43;1.90;;;10.30;49.80;;;;;;4976923;28;20212;-55
2022/03/17 11:01:46;;;;;;;7.03;1.63;;;10.50;13.60;;;;;;4974527;28;20299;-55
2022/03/17 11:04:14;;;;;;;5.07;1.37;;;10.40;1.00;;;;;;4977960;28;20279;-56
2022/03/17 11:06:41;;;;;;;9.60;1.77;;;10.50;99.90;;;;;;4977749;28;20233;-57
2022/03/17 11:09:08;;;;;;;7.27;1.80;;;10.80;99.90;;;;;;4977259;28;20294;-56
2022/03/17 11:11:39;;;;;;;4.27;2.30;;;11.10;1.00;;;;;;4978132;28;20715;-55
2022/03/17 11:14:06;;;;;;;5.80;1.80;;;11.00;1.00;;;;;;4978501;28;20302;-55
2022/03/17 11:16:46;;;;;;;4.63;1.37;;;11.30;1.00;;;;;;4975507;28;20305;-55
2022/03/17 11:19:20;;;;;;;4.93;1.40;;;11.10;1.00;;;;;;4977946;28;20280;-55
2022/03/17 11:21:49;;;;;;;5.20;1.50;;;11.30;1.00;;;;;;4977807;28;20280;-55
2022/03/17 11:24:20;;;;;;;7.50;2.00;;;11.20;1.00;;;;;;4974757;28;20209;-54
2022/03/17 11:26:48;;;;;;;10.63;1.67;;;11.20;1.00;;;;;;4973970;28;20252;-54
2022/03/17 11:29:24;;;;;;;10.77;2.00;;;11.20;1.00;;;;;;4975772;28;20831;-54
2022/03/17 11:32:02;;;;;;;4.03;1.43;;;11.30;1.00;;;;;;4978132;28;20316;-56
2022/03/17 11:34:37;;;;;;;5.63;1.70;;;11.20;1.00;;;;;;4975339;28;20513;-54
2022/03/17 11:37:19;;;;;;;3.50;1.60;;;11.30;1.00;;;;;;4977715;28;20839;-55
2022/03/17 11:40:06;;;;;;;3.00;1.50;;;11.10;1.00;;;;;;4975816;28;20221;-55
2022/03/17 11:42:44;;;;;;;3.27;1.40;;;11.00;1.00;;;;;;4977591;28;20242;-56
2022/03/17 11:45:13;;;;;;;4.00;1.87;;;10.60;99.90;;;;;;4975160;28;20210;-55
2022/03/17 11:47:54;;;;;;;4.93;1.87;;;10.60;1.00;;;;;;4974367;28;20700;-55
2022/03/17 11:50:28;;;;;;;7.37;1.80;;;10.80;1.00;;;;;;4970277;28;20198;-54
2022/03/17 11:53:02;;;;;;;4.43;1.80;;;11.50;36.40;;;;;;4972238;28;20287;-54
2022/03/17 11:55:37;;;;;;;4.03;1.33;;;11.80;1.00;;;;;;4977930;28;20199;-54
2022/03/17 11:58:40;;;;;;;5.40;1.53;;;12.20;1.00;;;;;;4975903;28;20199;-55
2022/03/17 12:01:27;;;;;;;3.47;1.07;;;12.40;1.00;;;;;;4962630;28;20241;-54
2022/03/17 12:03:57;;;;;;;4.90;1.40;;;12.80;1.00;;;;;;4972063;28;21051;-55
2022/03/17 12:06:29;;;;;;;2.60;1.30;;;12.80;1.00;;;;;;4973232;28;20708;-54
2022/03/17 12:09:06;;;;;;;4.20;1.37;;;12.50;1.00;;;;;;4977662;28;21007;-55
2022/03/17 12:11:59;;;;;;;11.23;2.20;;;12.70;1.00;;;;;;4975890;28;20251;-54
2022/03/17 12:14:28;;;;;;;4.87;1.67;;;12.90;1.00;;;;;;4976273;28;20307;-54
2022/03/17 12:16:55;;;;;;;2.70;1.40;;;12.80;1.00;;;;;;4977692;28;20207;-54
2022/03/17 12:20:04;;;;;;;14.77;2.20;;;12.70;1.00;;;;;;4975447;28;20210;-54
2022/03/17 12:22:39;;;;;;;143.50;17.00;;;12.50;1.00;;;;;;4978822;28;20210;-54
2022/03/17 12:25:15;;;;;;;2.73;1.10;;;12.70;99.90;;;;;;4978391;28;20601;-54
2022/03/17 12:27:44;;;;;;;5.83;2.20;;;12.70;99.90;;;;;;4976919;28;20209;-55
2022/03/17 12:30:16;;;;;;;3.30;1.70;;;12.80;99.90;;;;;;4977138;28;20806;-54
2022/03/17 12:32:53;;;;;;;4.33;1.83;;;13.20;99.90;;;;;;4976666;28;20605;-54
2022/03/17 12:35:22;;;;;;;8.90;1.97;;;13.70;99.90;;;;;;4977692;28;20280;-56
2022/03/17 12:37:56;;;;;;;8.17;1.90;;;13.50;99.90;;;;;;4979093;28;20286;-55
2022/03/17 12:40:25;;;;;;;4.63;1.70;;;13.00;99.90;;;;;;4977016;28;21009;-54
2022/03/17 12:42:53;;;;;;;4.17;2.03;;;12.80;99.90;;;;;;4974886;28;20787;-55
2022/03/17 12:45:24;;;;;;;3.37;1.57;;;12.80;99.90;;;;;;4979290;28;20640;-55
2022/03/17 12:47:58;;;;;;;4.03;2.10;;;13.10;99.90;;;;;;4977909;28;20216;-55
2022/03/17 12:50:28;;;;;;;4.17;1.70;;;13.30;99.90;;;;;;4977913;28;20229;-56
2022/03/17 12:52:55;;;;;;;3.73;1.40;;;13.40;99.90;;;;;;4976708;28;20605;-55
2022/03/17 12:55:23;;;;;;;2.27;1.50;;;13.30;99.90;;;;;;4992284;28;20205;-55
2022/03/17 12:57:50;;;;;;;5.13;1.97;;;14.10;99.90;;;;;;4974885;28;20257;-54
2022/03/17 13:00:23;;;;;;;4.10;1.47;;;13.80;99.90;;;;;;4973606;28;20231;-54
2022/03/17 13:02:55;;;;;;;3.73;1.60;;;14.10;99.90;;;;;;4973869;28;20213;-54
2022/03/17 13:08:13;;;;;;;4.63;1.70;;;14.10;96.80;;;;;;4976912;28;20215;-54
2022/03/17 13:16:16;;;;;;;7.37;1.50;;;14.00;99.90;;;;;;4970940;28;20291;-55
2022/03/17 13:18:51;;;;;;;4.83;1.27;;;14.70;11.10;;;;;;4976056;28;20213;-55